sensor_id;sensor_type;location;lat;lon;timestamp;temperature;humidity
17938;DHT22;16051;53.024;8.630;2023-02-28T00:01:54;6.20;99.90
17938;DHT22;16051;53.024;8.630;2023-02-28T00:05:58;6.10;99.90
17938;DHT22;16051;53.024;8.630;2023-02-28T00:10:00;6.10;99.90
17938;DHT22;16051;53.024;8.630;2023-02-28T00:14:03;6.10;99.90
17938;DHT22;16051;53.024;8.630;2023-02-28T00:18:09;6.00;99.90
17938;DHT22;16051;53.024;8.630;2023-02-28T00:22:13;6.00;99.90
17938;DHT22;16051;53.024;8.630;2023-02-28T00:26:16;6.00;99.90
17938;DHT22;16051;53.024;8.630;2023-02-28T00:30:19;6.00;99.90
17938;DHT22;16051;53.024;8.630;2023-02-28T00:34:24;6.00;99.90
17938;DHT22;16051;53.024;8.630;2023-02-28T00:38:28;6.00;99.90
17938;DHT22;16051;53.024;8.630;2023-02-28T00:42:30;5.90;99.90
17938;DHT22;16051;53.024;8.630;2023-02-28T00:46:33;5.90;99.90
17938;DHT22;16051;53.024;8.630;2023-02-28T00:50:35;5.90;99.90
17938;DHT22;16051;53.024;8.630;2023-02-28T00:54:49;5.90;99.90
17938;DHT22;16051;53.024;8.630;2023-02-28T00:58:56;5.80;99.90
17938;DHT22;16051;53.024;8.630;2023-02-28T01:02:58;5.80;99.90
17938;DHT22;16051;53.024;8.630;2023-02-28T01:07:00;5.80;99.90
17938;DHT22;16051;53.024;8.630;2023-02-28T01:11:09;5.80;99.90
17938;DHT22;16051;53.024;8.630;2023-02-28T01:15:13;5.70;99.90
17938;DHT22;16051;53.024;8.630;2023-02-28T01:19:15;5.70;99.90
17938;DHT22;16051;53.024;8.630;2023-02-28T01:23:20;5.70;99.90
17938;DHT22;16051;53.024;8.630;2023-02-28T01:27:25;5.70;99.90
17938;DHT22;16051;53.024;8.630;2023-02-28T01:31:27;5.70;99.90
17938;DHT22;16051;53.024;8.630;2023-02-28T01:35:32;5.60;99.90
17938;DHT22;16051;53.024;8.630;2023-02-28T01:39:36;5.60;99.90
17938;DHT22;16051;53.024;8.630;2023-02-28T01:43:55;5.60;99.90
17938;DHT22;16051;53.024;8.630;2023-02-28T01:48:06;5.60;99.90
17938;DHT22;16051;53.024;8.630;2023-02-28T01:52:42;5.60;99.90
17938;DHT22;16051;53.024;8.630;2023-02-28T01:56:48;5.60;99.90
17938;DHT22;16051;53.024;8.630;2023-02-28T02:00:56;5.60;99.90
17938;DHT22;16051;53.024;8.630;2023-02-28T02:05:04;5.50;99.90
17938;DHT22;16051;53.024;8.630;2023-02-28T02:09:07;5.50;99.90
17938;DHT22;16051;53.024;8.630;2023-02-28T02:13:47;5.50;99.90
17938;DHT22;16051;53.024;8.630;2023-02-28T02:18:10;5.50;99.90
17938;DHT22;16051;53.024;8.630;2023-02-28T02:22:41;5.40;99.90
17938;DHT22;16051;53.024;8.630;2023-02-28T02:27:25;5.50;99.90
17938;DHT22;16051;53.024;8.630;2023-02-28T02:31:59;5.40;99.90
17938;DHT22;16051;53.024;8.630;2023-02-28T02:36:20;5.40;99.90
17938;DHT22;16051;53.024;8.630;2023-02-28T02:40:29;5.40;99.90
17938;DHT22;16051;53.024;8.630;2023-02-28T02:44:42;5.40;99.90
17938;DHT22;16051;53.024;8.630;2023-02-28T02:48:48;5.40;99.90
17938;DHT22;16051;53.024;8.630;2023-02-28T02:52:56;5.40;99.90
17938;DHT22;16051;53.024;8.630;2023-02-28T02:57:05;5.30;99.90
17938;DHT22;16051;53.024;8.630;2023-02-28T03:01:14;5.30;99.90
17938;DHT22;16051;53.024;8.630;2023-02-28T03:05:19;5.30;99.90
17938;DHT22;16051;53.024;8.630;2023-02-28T03:09:26;5.30;99.90
17938;DHT22;16051;53.024;8.630;2023-02-28T03:13:53;5.30;99.90
17938;DHT22;16051;53.024;8.630;2023-02-28T03:18:04;5.20;99.90
17938;DHT22;16051;53.024;8.630;2023-02-28T03:22:32;5.20;99.90
17938;DHT22;16051;53.024;8.630;2023-02-28T03:26:46;5.20;99.90
17938;DHT22;16051;53.024;8.630;2023-02-28T03:30:58;5.10;99.90
17938;DHT22;16051;53.024;8.630;2023-02-28T03:35:07;5.10;99.90
17938;DHT22;16051;53.024;8.630;2023-02-28T03:39:34;5.10;99.90
17938;DHT22;16051;53.024;8.630;2023-02-28T03:43:44;5.10;99.90
17938;DHT22;16051;53.024;8.630;2023-02-28T03:47:54;5.10;99.90
17938;DHT22;16051;53.024;8.630;2023-02-28T03:52:00;5.10;99.90
17938;DHT22;16051;53.024;8.630;2023-02-28T03:56:09;5.00;99.90
17938;DHT22;16051;53.024;8.630;2023-02-28T04:00:19;5.00;99.90
17938;DHT22;16051;53.024;8.630;2023-02-28T04:04:28;5.00;99.90
17938;DHT22;16051;53.024;8.630;2023-02-28T04:08:31;5.00;99.90
17938;DHT22;16051;53.024;8.630;2023-02-28T04:12:33;4.90;99.90
17938;DHT22;16051;53.024;8.630;2023-02-28T04:16:38;4.90;99.90
17938;DHT22;16051;53.024;8.630;2023-02-28T04:20:42;4.80;99.90
17938;DHT22;16051;53.024;8.630;2023-02-28T04:24:44;4.80;99.90
17938;DHT22;16051;53.024;8.630;2023-02-28T04:28:46;4.80;99.90
17938;DHT22;16051;53.024;8.630;2023-02-28T04:32:50;4.80;99.90
17938;DHT22;16051;53.024;8.630;2023-02-28T04:36:54;4.70;99.90
17938;DHT22;16051;53.024;8.630;2023-02-28T04:40:57;4.70;99.90
17938;DHT22;16051;53.024;8.630;2023-02-28T04:44:59;4.70;99.90
17938;DHT22;16051;53.024;8.630;2023-02-28T04:49:03;4.70;99.90
17938;DHT22;16051;53.024;8.630;2023-02-28T04:53:09;4.60;99.90
17938;DHT22;16051;53.024;8.630;2023-02-28T04:57:11;4.60;99.90
17938;DHT22;16051;53.024;8.630;2023-02-28T05:01:19;4.60;99.90
17938;DHT22;16051;53.024;8.630;2023-02-28T05:05:25;4.60;99.90
17938;DHT22;16051;53.024;8.630;2023-02-28T05:09:27;4.50;99.90
17938;DHT22;16051;53.024;8.630;2023-02-28T05:13:30;4.50;99.90
17938;DHT22;16051;53.024;8.630;2023-02-28T05:17:32;4.50;99.90
17938;DHT22;16051;53.024;8.630;2023-02-28T05:21:36;4.50;99.90
17938;DHT22;16051;53.024;8.630;2023-02-28T05:25:41;4.40;99.90
17938;DHT22;16051;53.024;8.630;2023-02-28T05:29:43;4.40;99.90
17938;DHT22;16051;53.024;8.630;2023-02-28T05:33:45;4.40;99.90
17938;DHT22;16051;53.024;8.630;2023-02-28T05:38:09;4.40;99.90
17938;DHT22;16051;53.024;8.630;2023-02-28T05:42:11;4.30;99.90
17938;DHT22;16051;53.024;8.630;2023-02-28T05:46:16;4.20;99.90
17938;DHT22;16051;53.024;8.630;2023-02-28T05:50:18;4.20;99.90
17938;DHT22;16051;53.024;8.630;2023-02-28T05:54:21;4.10;99.90
17938;DHT22;16051;53.024;8.630;2023-02-28T05:58:24;4.00;99.90
17938;DHT22;16051;53.024;8.630;2023-02-28T06:03:00;4.00;99.90
17938;DHT22;16051;53.024;8.630;2023-02-28T06:07:09;3.90;99.90
17938;DHT22;16051;53.024;8.630;2023-02-28T06:11:13;3.90;99.90
17938;DHT22;16051;53.024;8.630;2023-02-28T06:15:43;3.80;99.90
17938;DHT22;16051;53.024;8.630;2023-02-28T06:19:45;3.80;99.90
17938;DHT22;16051;53.024;8.630;2023-02-28T06:23:48;3.80;99.90
17938;DHT22;16051;53.024;8.630;2023-02-28T06:27:52;3.70;99.90
17938;DHT22;16051;53.024;8.630;2023-02-28T06:31:55;3.70;99.90
17938;DHT22;16051;53.024;8.630;2023-02-28T06:35:57;3.70;99.90
17938;DHT22;16051;53.024;8.630;2023-02-28T06:39:59;3.70;99.90
17938;DHT22;16051;53.024;8.630;2023-02-28T06:44:03;3.70;99.90
17938;DHT22;16051;53.024;8.630;2023-02-28T06:48:06;3.70;99.90
17938;DHT22;16051;53.024;8.630;2023-02-28T06:52:08;3.70;99.90
17938;DHT22;16051;53.024;8.630;2023-02-28T06:56:14;3.70;99.90
17938;DHT22;16051;53.024;8.630;2023-02-28T07:00:19;3.70;99.90
17938;DHT22;16051;53.024;8.630;2023-02-28T07:04:22;3.70;99.90
17938;DHT22;16051;53.024;8.630;2023-02-28T07:08:25;3.70;99.90
17938;DHT22;16051;53.024;8.630;2023-02-28T07:12:28;3.70;99.90
17938;DHT22;16051;53.024;8.630;2023-02-28T07:16:31;3.60;99.90
17938;DHT22;16051;53.024;8.630;2023-02-28T07:20:34;3.70;99.90
17938;DHT22;16051;53.024;8.630;2023-02-28T07:24:37;3.70;99.90
17938;DHT22;16051;53.024;8.630;2023-02-28T07:28:39;3.70;99.90
17938;DHT22;16051;53.024;8.630;2023-02-28T07:32:44;3.70;99.90
17938;DHT22;16051;53.024;8.630;2023-02-28T07:36:53;3.80;99.90
17938;DHT22;16051;53.024;8.630;2023-02-28T07:40:55;3.90;99.90
17938;DHT22;16051;53.024;8.630;2023-02-28T07:44:57;4.00;99.90
17938;DHT22;16051;53.024;8.630;2023-02-28T07:49:01;4.20;99.90
17938;DHT22;16051;53.024;8.630;2023-02-28T07:53:03;4.60;99.90
17938;DHT22;16051;53.024;8.630;2023-02-28T07:57:05;4.90;99.90
17938;DHT22;16051;53.024;8.630;2023-02-28T08:01:09;5.30;99.90
17938;DHT22;16051;53.024;8.630;2023-02-28T08:05:13;5.60;99.90
17938;DHT22;16051;53.024;8.630;2023-02-28T08:09:15;5.80;99.90
17938;DHT22;16051;53.024;8.630;2023-02-28T08:13:17;6.00;99.90
17938;DHT22;16051;53.024;8.630;2023-02-28T08:17:19;6.20;99.90
17938;DHT22;16051;53.024;8.630;2023-02-28T08:21:23;6.30;99.90
17938;DHT22;16051;53.024;8.630;2023-02-28T08:25:25;6.40;99.90
17938;DHT22;16051;53.024;8.630;2023-02-28T08:29:27;6.60;99.90
17938;DHT22;16051;53.024;8.630;2023-02-28T08:33:30;6.60;99.90
17938;DHT22;16051;53.024;8.630;2023-02-28T08:42:09;6.70;99.90
17938;DHT22;16051;53.024;8.630;2023-02-28T08:46:12;6.60;99.90
17938;DHT22;16051;53.024;8.630;2023-02-28T08:50:15;6.60;99.90
17938;DHT22;16051;53.024;8.630;2023-02-28T08:54:18;6.60;99.90
17938;DHT22;16051;53.024;8.630;2023-02-28T08:58:21;6.50;99.90
17938;DHT22;16051;53.024;8.630;2023-02-28T09:02:23;6.60;99.90
17938;DHT22;16051;53.024;8.630;2023-02-28T09:06:28;6.60;99.90
17938;DHT22;16051;53.024;8.630;2023-02-28T09:10:31;6.70;99.90
17938;DHT22;16051;53.024;8.630;2023-02-28T09:14:34;6.70;99.90
17938;DHT22;16051;53.024;8.630;2023-02-28T09:18:36;6.80;99.90
17938;DHT22;16051;53.024;8.630;2023-02-28T09:22:39;7.00;99.90
17938;DHT22;16051;53.024;8.630;2023-02-28T09:27:01;7.20;99.90
17938;DHT22;16051;53.024;8.630;2023-02-28T09:31:04;7.40;99.90
17938;DHT22;16051;53.024;8.630;2023-02-28T09:35:07;8.40;99.90
17938;DHT22;16051;53.024;8.630;2023-02-28T09:39:26;8.70;99.90
17938;DHT22;16051;53.024;8.630;2023-02-28T09:43:34;8.70;99.90
17938;DHT22;16051;53.024;8.630;2023-02-28T09:47:41;9.00;99.90
17938;DHT22;16051;53.024;8.630;2023-02-28T09:51:50;9.40;99.90
17938;DHT22;16051;53.024;8.630;2023-02-28T09:56:01;10.00;99.90
17938;DHT22;16051;53.024;8.630;2023-02-28T10:00:14;11.00;99.90
17938;DHT22;16051;53.024;8.630;2023-02-28T10:04:40;11.60;99.90
17938;DHT22;16051;53.024;8.630;2023-02-28T10:08:52;11.50;99.90
17938;DHT22;16051;53.024;8.630;2023-02-28T10:13:13;11.90;99.90
17938;DHT22;16051;53.024;8.630;2023-02-28T10:17:23;12.10;98.80
17938;DHT22;16051;53.024;8.630;2023-02-28T10:21:30;13.10;97.40
17938;DHT22;16051;53.024;8.630;2023-02-28T10:25:47;13.90;95.10
17938;DHT22;16051;53.024;8.630;2023-02-28T10:29:56;14.40;92.60
17938;DHT22;16051;53.024;8.630;2023-02-28T10:34:01;15.00;90.70
17938;DHT22;16051;53.024;8.630;2023-02-28T10:38:15;15.60;88.70
17938;DHT22;16051;53.024;8.630;2023-02-28T10:42:21;15.80;85.30
17938;DHT22;16051;53.024;8.630;2023-02-28T10:46:33;15.90;79.40
17938;DHT22;16051;53.024;8.630;2023-02-28T10:50:42;16.20;78.20
17938;DHT22;16051;53.024;8.630;2023-02-28T10:54:50;16.70;74.90
17938;DHT22;16051;53.024;8.630;2023-02-28T10:59:28;17.00;73.40
17938;DHT22;16051;53.024;8.630;2023-02-28T11:03:33;17.30;72.30
17938;DHT22;16051;53.024;8.630;2023-02-28T11:08:04;17.80;69.80
17938;DHT22;16051;53.024;8.630;2023-02-28T11:12:20;18.00;66.80
17938;DHT22;16051;53.024;8.630;2023-02-28T11:16:32;18.30;65.50
17938;DHT22;16051;53.024;8.630;2023-02-28T11:20:36;18.70;63.10
17938;DHT22;16051;53.024;8.630;2023-02-28T11:24:43;19.00;61.00
17938;DHT22;16051;53.024;8.630;2023-02-28T11:28:47;19.20;59.50
17938;DHT22;16051;53.024;8.630;2023-02-28T11:32:49;19.50;58.40
17938;DHT22;16051;53.024;8.630;2023-02-28T11:36:53;20.00;56.70
17938;DHT22;16051;53.024;8.630;2023-02-28T11:41:09;20.30;57.50
17938;DHT22;16051;53.024;8.630;2023-02-28T11:55:25;17.50;53.80
17938;DHT22;16051;53.024;8.630;2023-02-28T11:59:44;17.50;53.10
17938;DHT22;16051;53.024;8.630;2023-02-28T12:04:10;17.30;54.30
17938;DHT22;16051;53.024;8.630;2023-02-28T12:13:26;17.20;50.00
17938;DHT22;16051;53.024;8.630;2023-02-28T12:17:47;17.40;51.30
17938;DHT22;16051;53.024;8.630;2023-02-28T12:22:29;17.60;50.60
17938;DHT22;16051;53.024;8.630;2023-02-28T12:26:36;17.70;50.00
17938;DHT22;16051;53.024;8.630;2023-02-28T12:30:45;17.70;48.90
17938;DHT22;16051;53.024;8.630;2023-02-28T12:34:57;17.80;48.30
17938;DHT22;16051;53.024;8.630;2023-02-28T12:39:08;18.00;50.40
17938;DHT22;16051;53.024;8.630;2023-02-28T12:43:19;18.20;48.40
17938;DHT22;16051;53.024;8.630;2023-02-28T12:47:25;18.10;48.30
17938;DHT22;16051;53.024;8.630;2023-02-28T12:51:41;18.20;47.50
17938;DHT22;16051;53.024;8.630;2023-02-28T12:55:50;18.30;47.50
17938;DHT22;16051;53.024;8.630;2023-02-28T13:00:03;18.30;46.70
17938;DHT22;16051;53.024;8.630;2023-02-28T13:04:42;19.20;47.60
17938;DHT22;16051;53.024;8.630;2023-02-28T13:09:16;20.30;48.10
17938;DHT22;16051;53.024;8.630;2023-02-28T13:13:22;21.20;47.80
17938;DHT22;16051;53.024;8.630;2023-02-28T13:17:26;21.80;47.00
17938;DHT22;16051;53.024;8.630;2023-02-28T13:21:29;24.20;45.60
17938;DHT22;16051;53.024;8.630;2023-02-28T13:25:52;26.20;42.60
17938;DHT22;16051;53.024;8.630;2023-02-28T13:30:01;27.00;40.00
17938;DHT22;16051;53.024;8.630;2023-02-28T13:34:49;27.70;38.60
17938;DHT22;16051;53.024;8.630;2023-02-28T13:39:46;28.40;36.90
17938;DHT22;16051;53.024;8.630;2023-02-28T13:44:03;29.20;35.70
17938;DHT22;16051;53.024;8.630;2023-02-28T13:48:17;29.50;34.40
17938;DHT22;16051;53.024;8.630;2023-02-28T13:52:44;29.80;33.20
17938;DHT22;16051;53.024;8.630;2023-02-28T13:57:03;30.00;32.10
17938;DHT22;16051;53.024;8.630;2023-02-28T14:01:33;30.40;31.10
17938;DHT22;16051;53.024;8.630;2023-02-28T14:06:10;30.70;30.80
17938;DHT22;16051;53.024;8.630;2023-02-28T14:10:24;31.00;30.40
17938;DHT22;16051;53.024;8.630;2023-02-28T14:14:54;31.20;30.00
17938;DHT22;16051;53.024;8.630;2023-02-28T14:19:02;31.30;29.40
17938;DHT22;16051;53.024;8.630;2023-02-28T14:23:17;31.60;29.10
17938;DHT22;16051;53.024;8.630;2023-02-28T14:27:47;32.00;28.40
17938;DHT22;16051;53.024;8.630;2023-02-28T14:32:01;32.10;28.50
17938;DHT22;16051;53.024;8.630;2023-02-28T14:36:12;31.70;28.40
17938;DHT22;16051;53.024;8.630;2023-02-28T14:40:22;31.20;28.30
17938;DHT22;16051;53.024;8.630;2023-02-28T14:44:29;30.40;28.90
17938;DHT22;16051;53.024;8.630;2023-02-28T14:48:33;29.30;29.50
17938;DHT22;16051;53.024;8.630;2023-02-28T14:52:38;28.70;29.70
17938;DHT22;16051;53.024;8.630;2023-02-28T14:56:40;28.40;29.60
17938;DHT22;16051;53.024;8.630;2023-02-28T15:00:49;27.70;30.00
17938;DHT22;16051;53.024;8.630;2023-02-28T15:04:55;27.00;30.80
17938;DHT22;16051;53.024;8.630;2023-02-28T15:09:10;26.60;30.80
17938;DHT22;16051;53.024;8.630;2023-02-28T15:13:18;26.30;30.70
17938;DHT22;16051;53.024;8.630;2023-02-28T15:17:30;24.80;31.90
17938;DHT22;16051;53.024;8.630;2023-02-28T15:21:34;24.70;32.10
17938;DHT22;16051;53.024;8.630;2023-02-28T15:26:01;23.80;32.80
17938;DHT22;16051;53.024;8.630;2023-02-28T15:30:07;23.90;33.30
17938;DHT22;16051;53.024;8.630;2023-02-28T15:34:19;23.30;33.60
17938;DHT22;16051;53.024;8.630;2023-02-28T15:38:25;22.70;33.40
17938;DHT22;16051;53.024;8.630;2023-02-28T15:42:30;21.90;34.40
17938;DHT22;16051;53.024;8.630;2023-02-28T15:46:32;21.50;35.00
17938;DHT22;16051;53.024;8.630;2023-02-28T15:50:39;21.00;35.20
17938;DHT22;16051;53.024;8.630;2023-02-28T15:54:45;20.60;35.30
17938;DHT22;16051;53.024;8.630;2023-02-28T15:58:53;20.60;35.50
17938;DHT22;16051;53.024;8.630;2023-02-28T16:02:56;20.80;35.10
17938;DHT22;16051;53.024;8.630;2023-02-28T16:07:12;20.70;35.00
17938;DHT22;16051;53.024;8.630;2023-02-28T16:11:29;20.00;35.20
17938;DHT22;16051;53.024;8.630;2023-02-28T16:15:37;19.20;36.20
17938;DHT22;16051;53.024;8.630;2023-02-28T16:19:43;18.00;37.00
17938;DHT22;16051;53.024;8.630;2023-02-28T16:23:52;17.00;38.40
17938;DHT22;16051;53.024;8.630;2023-02-28T16:27:58;16.30;39.00
17938;DHT22;16051;53.024;8.630;2023-02-28T16:32:04;15.80;39.50
17938;DHT22;16051;53.024;8.630;2023-02-28T16:36:23;15.40;40.50
17938;DHT22;16051;53.024;8.630;2023-02-28T16:40:26;15.10;40.90
17938;DHT22;16051;53.024;8.630;2023-02-28T16:44:32;14.70;41.20
17938;DHT22;16051;53.024;8.630;2023-02-28T16:48:37;14.40;41.60
17938;DHT22;16051;53.024;8.630;2023-02-28T16:52:42;14.10;41.90
17938;DHT22;16051;53.024;8.630;2023-02-28T16:56:46;13.80;42.40
17938;DHT22;16051;53.024;8.630;2023-02-28T17:00:50;13.50;42.90
17938;DHT22;16051;53.024;8.630;2023-02-28T17:05:22;13.30;43.30
17938;DHT22;16051;53.024;8.630;2023-02-28T17:09:25;13.00;43.80
17938;DHT22;16051;53.024;8.630;2023-02-28T17:13:27;12.80;44.30
17938;DHT22;16051;53.024;8.630;2023-02-28T17:17:29;12.50;44.90
17938;DHT22;16051;53.024;8.630;2023-02-28T17:21:33;12.20;45.30
17938;DHT22;16051;53.024;8.630;2023-02-28T17:25:35;12.10;46.00
17938;DHT22;16051;53.024;8.630;2023-02-28T17:29:37;11.80;46.50
17938;DHT22;16051;53.024;8.630;2023-02-28T17:33:40;11.60;46.90
17938;DHT22;16051;53.024;8.630;2023-02-28T17:37:52;11.40;47.50
17938;DHT22;16051;53.024;8.630;2023-02-28T17:41:55;11.20;47.80
17938;DHT22;16051;53.024;8.630;2023-02-28T17:46:00;11.00;48.20
17938;DHT22;16051;53.024;8.630;2023-02-28T17:50:15;10.80;48.70
17938;DHT22;16051;53.024;8.630;2023-02-28T17:54:20;10.60;49.10
17938;DHT22;16051;53.024;8.630;2023-02-28T17:58:23;10.40;49.50
17938;DHT22;16051;53.024;8.630;2023-02-28T18:02:25;10.20;49.90
17938;DHT22;16051;53.024;8.630;2023-02-28T18:06:38;10.00;50.20
17938;DHT22;16051;53.024;8.630;2023-02-28T18:10:49;9.90;51.60
17938;DHT22;16051;53.024;8.630;2023-02-28T18:14:51;9.70;51.60
17938;DHT22;16051;53.024;8.630;2023-02-28T18:19:05;9.50;52.20
17938;DHT22;16051;53.024;8.630;2023-02-28T18:23:09;9.40;52.70
17938;DHT22;16051;53.024;8.630;2023-02-28T18:27:12;9.20;53.00
17938;DHT22;16051;53.024;8.630;2023-02-28T18:31:17;9.10;53.30
17938;DHT22;16051;53.024;8.630;2023-02-28T18:35:22;8.90;53.70
17938;DHT22;16051;53.024;8.630;2023-02-28T18:39:35;8.80;54.10
17938;DHT22;16051;53.024;8.630;2023-02-28T18:43:41;8.70;54.60
17938;DHT22;16051;53.024;8.630;2023-02-28T18:47:43;8.50;55.00
17938;DHT22;16051;53.024;8.630;2023-02-28T18:51:46;8.40;55.40
17938;DHT22;16051;53.024;8.630;2023-02-28T18:55:48;8.20;55.70
17938;DHT22;16051;53.024;8.630;2023-02-28T19:00:07;8.10;56.10
17938;DHT22;16051;53.024;8.630;2023-02-28T19:04:11;8.00;56.40
17938;DHT22;16051;53.024;8.630;2023-02-28T19:08:14;7.80;56.70
17938;DHT22;16051;53.024;8.630;2023-02-28T19:12:17;7.70;57.10
17938;DHT22;16051;53.024;8.630;2023-02-28T19:16:21;7.60;57.50
17938;DHT22;16051;53.024;8.630;2023-02-28T19:20:32;7.50;57.70
17938;DHT22;16051;53.024;8.630;2023-02-28T19:24:34;7.40;58.10
17938;DHT22;16051;53.024;8.630;2023-02-28T19:28:37;7.20;58.40
17938;DHT22;16051;53.024;8.630;2023-02-28T19:32:42;7.10;58.70
17938;DHT22;16051;53.024;8.630;2023-02-28T19:36:44;7.00;59.10
17938;DHT22;16051;53.024;8.630;2023-02-28T19:40:46;7.00;59.40
17938;DHT22;16051;53.024;8.630;2023-02-28T19:44:49;6.80;59.80
17938;DHT22;16051;53.024;8.630;2023-02-28T19:48:54;6.70;60.00
17938;DHT22;16051;53.024;8.630;2023-02-28T19:52:56;6.60;60.70
17938;DHT22;16051;53.024;8.630;2023-02-28T19:56:58;6.40;60.80
17938;DHT22;16051;53.024;8.630;2023-02-28T20:01:06;6.40;61.50
17938;DHT22;16051;53.024;8.630;2023-02-28T20:05:11;6.30;61.80
17938;DHT22;16051;53.024;8.630;2023-02-28T20:09:13;6.10;62.30
17938;DHT22;16051;53.024;8.630;2023-02-28T20:13:16;6.10;62.80
17938;DHT22;16051;53.024;8.630;2023-02-28T20:17:20;5.90;63.00
17938;DHT22;16051;53.024;8.630;2023-02-28T20:21:25;5.80;63.70
17938;DHT22;16051;53.024;8.630;2023-02-28T20:25:27;5.80;64.00
17938;DHT22;16051;53.024;8.630;2023-02-28T20:29:29;5.60;64.40
17938;DHT22;16051;53.024;8.630;2023-02-28T20:33:31;5.50;65.60
17938;DHT22;16051;53.024;8.630;2023-02-28T20:37:35;5.50;65.20
17938;DHT22;16051;53.024;8.630;2023-02-28T20:41:38;5.40;65.60
17938;DHT22;16051;53.024;8.630;2023-02-28T20:45:49;5.30;66.00
17938;DHT22;16051;53.024;8.630;2023-02-28T20:49:52;5.20;66.30
17938;DHT22;16051;53.024;8.630;2023-02-28T20:54:13;5.10;66.60
17938;DHT22;16051;53.024;8.630;2023-02-28T20:58:15;5.00;66.90
17938;DHT22;16051;53.024;8.630;2023-02-28T21:02:18;5.00;67.60
17938;DHT22;16051;53.024;8.630;2023-02-28T21:06:23;4.90;68.10
17938;DHT22;16051;53.024;8.630;2023-02-28T21:10:29;4.80;68.40
17938;DHT22;16051;53.024;8.630;2023-02-28T21:14:31;4.70;68.80
17938;DHT22;16051;53.024;8.630;2023-02-28T21:18:35;4.60;68.90
17938;DHT22;16051;53.024;8.630;2023-02-28T21:22:38;4.50;69.20
17938;DHT22;16051;53.024;8.630;2023-02-28T21:26:42;4.50;70.00
17938;DHT22;16051;53.024;8.630;2023-02-28T21:30:45;4.40;70.10
17938;DHT22;16051;53.024;8.630;2023-02-28T21:34:53;4.30;71.20
17938;DHT22;16051;53.024;8.630;2023-02-28T21:38:57;4.20;70.90
17938;DHT22;16051;53.024;8.630;2023-02-28T21:43:02;4.10;71.50
17938;DHT22;16051;53.024;8.630;2023-02-28T21:47:04;4.00;72.00
17938;DHT22;16051;53.024;8.630;2023-02-28T21:51:16;4.00;72.70
17938;DHT22;16051;53.024;8.630;2023-02-28T21:55:43;3.90;73.90
17938;DHT22;16051;53.024;8.630;2023-02-28T21:59:45;3.80;73.70
17938;DHT22;16051;53.024;8.630;2023-02-28T22:03:48;3.70;74.10
17938;DHT22;16051;53.024;8.630;2023-02-28T22:07:52;3.60;74.70
17938;DHT22;16051;53.024;8.630;2023-02-28T22:11:55;3.60;75.00
17938;DHT22;16051;53.024;8.630;2023-02-28T22:16:01;3.50;75.60
17938;DHT22;16051;53.024;8.630;2023-02-28T22:20:05;3.40;76.10
17938;DHT22;16051;53.024;8.630;2023-02-28T22:24:09;3.30;76.20
17938;DHT22;16051;53.024;8.630;2023-02-28T22:28:11;3.30;77.10
17938;DHT22;16051;53.024;8.630;2023-02-28T22:32:13;3.20;77.40
17938;DHT22;16051;53.024;8.630;2023-02-28T22:36:17;3.10;77.80
17938;DHT22;16051;53.024;8.630;2023-02-28T22:40:21;3.00;78.40
17938;DHT22;16051;53.024;8.630;2023-02-28T22:44:23;3.00;78.80
17938;DHT22;16051;53.024;8.630;2023-02-28T22:48:26;3.00;79.30
17938;DHT22;16051;53.024;8.630;2023-02-28T22:52:28;2.90;79.50
17938;DHT22;16051;53.024;8.630;2023-02-28T22:56:31;2.80;80.30
17938;DHT22;16051;53.024;8.630;2023-02-28T23:00:33;2.70;80.70
17938;DHT22;16051;53.024;8.630;2023-02-28T23:04:36;2.70;81.10
17938;DHT22;16051;53.024;8.630;2023-02-28T23:08:38;2.60;81.70
17938;DHT22;16051;53.024;8.630;2023-02-28T23:12:42;2.50;82.30
17938;DHT22;16051;53.024;8.630;2023-02-28T23:16:53;2.50;82.80
17938;DHT22;16051;53.024;8.630;2023-02-28T23:21:12;2.40;83.30
17938;DHT22;16051;53.024;8.630;2023-02-28T23:25:15;2.40;83.80
17938;DHT22;16051;53.024;8.630;2023-02-28T23:29:20;2.30;84.40
17938;DHT22;16051;53.024;8.630;2023-02-28T23:33:22;2.20;84.90
17938;DHT22;16051;53.024;8.630;2023-02-28T23:37:25;2.20;85.80
17938;DHT22;16051;53.024;8.630;2023-02-28T23:41:28;2.10;85.70
17938;DHT22;16051;53.024;8.630;2023-02-28T23:45:31;2.10;86.40
17938;DHT22;16051;53.024;8.630;2023-02-28T23:49:33;2.00;87.80
17938;DHT22;16051;53.024;8.630;2023-02-28T23:53:37;2.00;87.50
17938;DHT22;16051;53.024;8.630;2023-02-28T23:57:57;1.90;87.90
